sensor_id;sensor_type;location;lat;lon;timestamp;temperature;humidity
16767;DHT22;8501;49.926;8.404;2024-03-08T00:01:06;6.80;99.90
16767;DHT22;8501;49.926;8.404;2024-03-08T00:03:32;6.80;99.90
16767;DHT22;8501;49.926;8.404;2024-03-08T00:05:58;6.70;99.90
16767;DHT22;8501;49.926;8.404;2024-03-08T00:08:23;6.70;99.90
16767;DHT22;8501;49.926;8.404;2024-03-08T00:10:50;6.60;99.90
16767;DHT22;8501;49.926;8.404;2024-03-08T00:13:15;6.60;99.90
16767;DHT22;8501;49.926;8.404;2024-03-08T00:15:41;6.60;99.90
16767;DHT22;8501;49.926;8.404;2024-03-08T00:18:07;6.50;99.90
16767;DHT22;8501;49.926;8.404;2024-03-08T00:20:32;6.40;99.90
16767;DHT22;8501;49.926;8.404;2024-03-08T00:22:58;6.40;99.90
16767;DHT22;8501;49.926;8.404;2024-03-08T00:25:24;6.40;99.90
16767;DHT22;8501;49.926;8.404;2024-03-08T00:27:49;6.40;99.90
16767;DHT22;8501;49.926;8.404;2024-03-08T00:30:15;6.30;99.90
16767;DHT22;8501;49.926;8.404;2024-03-08T00:32:41;6.40;99.90
16767;DHT22;8501;49.926;8.404;2024-03-08T00:35:06;6.40;99.90
16767;DHT22;8501;49.926;8.404;2024-03-08T00:37:32;6.30;99.90
16767;DHT22;8501;49.926;8.404;2024-03-08T00:39:59;6.20;99.90
16767;DHT22;8501;49.926;8.404;2024-03-08T00:42:25;6.20;99.90
16767;DHT22;8501;49.926;8.404;2024-03-08T00:44:50;6.20;99.90
16767;DHT22;8501;49.926;8.404;2024-03-08T00:47:16;6.20;99.90
16767;DHT22;8501;49.926;8.404;2024-03-08T00:49:42;6.20;99.90
16767;DHT22;8501;49.926;8.404;2024-03-08T00:52:08;6.20;99.90
16767;DHT22;8501;49.926;8.404;2024-03-08T00:54:34;6.20;99.90
16767;DHT22;8501;49.926;8.404;2024-03-08T00:56:59;6.20;99.90
16767;DHT22;8501;49.926;8.404;2024-03-08T00:59:28;6.10;99.90
16767;DHT22;8501;49.926;8.404;2024-03-08T01:01:54;6.10;99.90
16767;DHT22;8501;49.926;8.404;2024-03-08T01:04:20;6.10;99.90
16767;DHT22;8501;49.926;8.404;2024-03-08T01:06:46;6.00;99.90
16767;DHT22;8501;49.926;8.404;2024-03-08T01:09:12;6.10;99.90
16767;DHT22;8501;49.926;8.404;2024-03-08T01:11:38;6.00;99.90
16767;DHT22;8501;49.926;8.404;2024-03-08T01:14:04;5.90;99.90
16767;DHT22;8501;49.926;8.404;2024-03-08T01:16:29;5.90;99.90
16767;DHT22;8501;49.926;8.404;2024-03-08T01:18:55;5.90;99.90
16767;DHT22;8501;49.926;8.404;2024-03-08T01:21:20;5.90;99.90
16767;DHT22;8501;49.926;8.404;2024-03-08T01:23:47;5.90;99.90
16767;DHT22;8501;49.926;8.404;2024-03-08T01:26:13;5.80;99.90
16767;DHT22;8501;49.926;8.404;2024-03-08T01:28:40;5.80;99.90
16767;DHT22;8501;49.926;8.404;2024-03-08T01:31:05;5.70;99.90
16767;DHT22;8501;49.926;8.404;2024-03-08T01:33:31;5.70;99.90
16767;DHT22;8501;49.926;8.404;2024-03-08T01:35:57;5.60;99.90
16767;DHT22;8501;49.926;8.404;2024-03-08T01:38:23;5.60;99.90
16767;DHT22;8501;49.926;8.404;2024-03-08T01:40:49;5.60;99.90
16767;DHT22;8501;49.926;8.404;2024-03-08T01:45:43;5.50;99.90
16767;DHT22;8501;49.926;8.404;2024-03-08T01:48:09;5.50;99.90
16767;DHT22;8501;49.926;8.404;2024-03-08T01:50:35;5.60;99.90
16767;DHT22;8501;49.926;8.404;2024-03-08T01:53:02;5.50;99.90
16767;DHT22;8501;49.926;8.404;2024-03-08T01:55:28;5.50;99.90
16767;DHT22;8501;49.926;8.404;2024-03-08T01:57:54;5.50;99.90
16767;DHT22;8501;49.926;8.404;2024-03-08T02:00:20;5.50;99.90
16767;DHT22;8501;49.926;8.404;2024-03-08T02:02:46;5.50;99.90
16767;DHT22;8501;49.926;8.404;2024-03-08T02:05:12;5.60;99.90
16767;DHT22;8501;49.926;8.404;2024-03-08T02:07:41;5.60;99.90
16767;DHT22;8501;49.926;8.404;2024-03-08T02:10:09;5.50;99.90
16767;DHT22;8501;49.926;8.404;2024-03-08T02:12:35;5.50;99.90
16767;DHT22;8501;49.926;8.404;2024-03-08T02:15:01;5.50;99.90
16767;DHT22;8501;49.926;8.404;2024-03-08T02:17:26;5.60;99.90
16767;DHT22;8501;49.926;8.404;2024-03-08T02:19:52;5.60;99.90
16767;DHT22;8501;49.926;8.404;2024-03-08T02:22:17;5.60;99.90
16767;DHT22;8501;49.926;8.404;2024-03-08T02:24:43;5.50;99.90
16767;DHT22;8501;49.926;8.404;2024-03-08T02:27:09;5.50;99.90
16767;DHT22;8501;49.926;8.404;2024-03-08T02:29:37;5.50;99.90
16767;DHT22;8501;49.926;8.404;2024-03-08T02:32:06;5.50;99.90
16767;DHT22;8501;49.926;8.404;2024-03-08T02:34:31;5.40;99.90
16767;DHT22;8501;49.926;8.404;2024-03-08T02:36:57;5.40;99.90
16767;DHT22;8501;49.926;8.404;2024-03-08T02:39:22;5.40;99.90
16767;DHT22;8501;49.926;8.404;2024-03-08T02:41:48;5.40;99.90
16767;DHT22;8501;49.926;8.404;2024-03-08T02:44:13;5.40;99.90
16767;DHT22;8501;49.926;8.404;2024-03-08T02:46:40;5.40;99.90
16767;DHT22;8501;49.926;8.404;2024-03-08T02:49:06;5.30;99.90
16767;DHT22;8501;49.926;8.404;2024-03-08T02:51:33;5.30;99.90
16767;DHT22;8501;49.926;8.404;2024-03-08T02:54:00;5.30;99.90
16767;DHT22;8501;49.926;8.404;2024-03-08T02:56:26;5.20;99.90
16767;DHT22;8501;49.926;8.404;2024-03-08T02:58:51;5.20;99.90
16767;DHT22;8501;49.926;8.404;2024-03-08T03:01:17;5.20;99.90
16767;DHT22;8501;49.926;8.404;2024-03-08T03:03:45;5.10;99.90
16767;DHT22;8501;49.926;8.404;2024-03-08T03:06:12;5.20;99.90
16767;DHT22;8501;49.926;8.404;2024-03-08T03:08:37;5.10;99.90
16767;DHT22;8501;49.926;8.404;2024-03-08T03:11:04;5.00;99.90
16767;DHT22;8501;49.926;8.404;2024-03-08T03:13:29;5.00;99.90
16767;DHT22;8501;49.926;8.404;2024-03-08T03:15:55;5.00;99.90
16767;DHT22;8501;49.926;8.404;2024-03-08T03:18:23;5.00;99.90
16767;DHT22;8501;49.926;8.404;2024-03-08T03:20:49;5.00;99.90
16767;DHT22;8501;49.926;8.404;2024-03-08T03:23:14;5.00;99.90
16767;DHT22;8501;49.926;8.404;2024-03-08T03:25:46;5.00;99.90
16767;DHT22;8501;49.926;8.404;2024-03-08T03:28:11;4.90;99.90
16767;DHT22;8501;49.926;8.404;2024-03-08T03:30:44;4.80;99.90
16767;DHT22;8501;49.926;8.404;2024-03-08T03:33:11;4.80;99.90
16767;DHT22;8501;49.926;8.404;2024-03-08T03:35:38;4.80;99.90
16767;DHT22;8501;49.926;8.404;2024-03-08T03:38:03;4.80;99.90
16767;DHT22;8501;49.926;8.404;2024-03-08T03:40:33;4.90;99.90
16767;DHT22;8501;49.926;8.404;2024-03-08T03:42:59;4.90;99.90
16767;DHT22;8501;49.926;8.404;2024-03-08T03:45:25;4.90;99.90
16767;DHT22;8501;49.926;8.404;2024-03-08T03:47:51;4.90;99.90
16767;DHT22;8501;49.926;8.404;2024-03-08T03:50:20;4.80;99.90
16767;DHT22;8501;49.926;8.404;2024-03-08T03:52:46;4.70;99.90
16767;DHT22;8501;49.926;8.404;2024-03-08T03:55:13;4.60;99.90
16767;DHT22;8501;49.926;8.404;2024-03-08T03:57:39;4.50;99.90
16767;DHT22;8501;49.926;8.404;2024-03-08T04:00:05;4.60;99.90
16767;DHT22;8501;49.926;8.404;2024-03-08T04:02:36;4.60;99.90
16767;DHT22;8501;49.926;8.404;2024-03-08T04:05:02;4.60;99.90
16767;DHT22;8501;49.926;8.404;2024-03-08T04:07:28;4.50;99.90
16767;DHT22;8501;49.926;8.404;2024-03-08T04:09:53;4.60;99.90
16767;DHT22;8501;49.926;8.404;2024-03-08T04:12:19;4.50;99.90
16767;DHT22;8501;49.926;8.404;2024-03-08T04:14:45;4.50;99.90
16767;DHT22;8501;49.926;8.404;2024-03-08T04:17:10;4.50;99.90
16767;DHT22;8501;49.926;8.404;2024-03-08T04:19:38;4.50;99.90
16767;DHT22;8501;49.926;8.404;2024-03-08T04:22:06;4.50;99.90
16767;DHT22;8501;49.926;8.404;2024-03-08T04:24:33;4.40;99.90
16767;DHT22;8501;49.926;8.404;2024-03-08T04:26:58;4.30;99.90
16767;DHT22;8501;49.926;8.404;2024-03-08T04:29:24;4.30;99.90
16767;DHT22;8501;49.926;8.404;2024-03-08T04:31:50;4.40;99.90
16767;DHT22;8501;49.926;8.404;2024-03-08T04:34:22;4.30;99.90
16767;DHT22;8501;49.926;8.404;2024-03-08T04:36:48;4.30;99.90
16767;DHT22;8501;49.926;8.404;2024-03-08T04:39:14;4.30;99.90
16767;DHT22;8501;49.926;8.404;2024-03-08T04:41:41;4.20;99.90
16767;DHT22;8501;49.926;8.404;2024-03-08T04:44:09;4.20;99.90
16767;DHT22;8501;49.926;8.404;2024-03-08T04:46:37;4.20;99.90
16767;DHT22;8501;49.926;8.404;2024-03-08T04:49:02;4.20;99.90
16767;DHT22;8501;49.926;8.404;2024-03-08T04:51:28;4.20;99.90
16767;DHT22;8501;49.926;8.404;2024-03-08T04:53:53;4.20;99.90
16767;DHT22;8501;49.926;8.404;2024-03-08T04:56:19;4.20;99.90
16767;DHT22;8501;49.926;8.404;2024-03-08T04:58:45;4.20;99.90
16767;DHT22;8501;49.926;8.404;2024-03-08T05:01:12;4.20;99.90
16767;DHT22;8501;49.926;8.404;2024-03-08T05:03:37;4.10;99.90
16767;DHT22;8501;49.926;8.404;2024-03-08T05:06:04;4.20;99.90
16767;DHT22;8501;49.926;8.404;2024-03-08T05:08:29;4.10;99.90
16767;DHT22;8501;49.926;8.404;2024-03-08T05:10:55;4.10;99.90
16767;DHT22;8501;49.926;8.404;2024-03-08T05:13:21;4.10;99.90
16767;DHT22;8501;49.926;8.404;2024-03-08T05:15:49;4.10;99.90
16767;DHT22;8501;49.926;8.404;2024-03-08T05:18:15;4.00;99.90
16767;DHT22;8501;49.926;8.404;2024-03-08T05:20:41;4.00;99.90
16767;DHT22;8501;49.926;8.404;2024-03-08T05:23:07;4.00;99.90
16767;DHT22;8501;49.926;8.404;2024-03-08T05:25:33;4.00;99.90
16767;DHT22;8501;49.926;8.404;2024-03-08T05:27:59;3.90;99.90
16767;DHT22;8501;49.926;8.404;2024-03-08T05:30:24;3.90;99.90
16767;DHT22;8501;49.926;8.404;2024-03-08T05:32:50;3.90;99.90
16767;DHT22;8501;49.926;8.404;2024-03-08T05:35:15;3.90;99.90
16767;DHT22;8501;49.926;8.404;2024-03-08T05:37:41;3.80;99.90
16767;DHT22;8501;49.926;8.404;2024-03-08T05:40:08;3.80;99.90
16767;DHT22;8501;49.926;8.404;2024-03-08T05:42:37;3.70;99.90
16767;DHT22;8501;49.926;8.404;2024-03-08T05:45:06;3.70;99.90
16767;DHT22;8501;49.926;8.404;2024-03-08T05:47:32;3.70;99.90
16767;DHT22;8501;49.926;8.404;2024-03-08T05:49:58;3.70;99.90
16767;DHT22;8501;49.926;8.404;2024-03-08T05:52:24;3.70;99.90
16767;DHT22;8501;49.926;8.404;2024-03-08T05:54:51;3.70;99.90
16767;DHT22;8501;49.926;8.404;2024-03-08T05:57:17;3.70;99.90
16767;DHT22;8501;49.926;8.404;2024-03-08T05:59:43;3.60;99.90
16767;DHT22;8501;49.926;8.404;2024-03-08T06:02:08;3.60;99.90
16767;DHT22;8501;49.926;8.404;2024-03-08T06:04:34;3.70;99.90
16767;DHT22;8501;49.926;8.404;2024-03-08T06:06:59;3.70;99.90
16767;DHT22;8501;49.926;8.404;2024-03-08T06:09:25;3.70;99.90
16767;DHT22;8501;49.926;8.404;2024-03-08T06:11:52;3.80;99.90
16767;DHT22;8501;49.926;8.404;2024-03-08T06:14:19;3.70;99.90
16767;DHT22;8501;49.926;8.404;2024-03-08T06:16:45;3.70;99.90
16767;DHT22;8501;49.926;8.404;2024-03-08T06:19:11;3.70;99.90
16767;DHT22;8501;49.926;8.404;2024-03-08T06:21:37;3.70;99.90
16767;DHT22;8501;49.926;8.404;2024-03-08T06:24:03;3.70;99.90
16767;DHT22;8501;49.926;8.404;2024-03-08T06:26:28;3.70;99.90
16767;DHT22;8501;49.926;8.404;2024-03-08T06:28:54;3.70;99.90
16767;DHT22;8501;49.926;8.404;2024-03-08T06:31:20;3.70;99.90
16767;DHT22;8501;49.926;8.404;2024-03-08T06:33:45;3.70;99.90
16767;DHT22;8501;49.926;8.404;2024-03-08T06:36:11;3.80;99.90
16767;DHT22;8501;49.926;8.404;2024-03-08T06:38:38;3.80;99.90
16767;DHT22;8501;49.926;8.404;2024-03-08T06:41:10;3.80;99.90
16767;DHT22;8501;49.926;8.404;2024-03-08T06:43:40;3.90;99.90
16767;DHT22;8501;49.926;8.404;2024-03-08T06:46:06;3.80;99.90
16767;DHT22;8501;49.926;8.404;2024-03-08T06:48:32;3.80;99.90
16767;DHT22;8501;49.926;8.404;2024-03-08T06:50:57;3.90;99.90
16767;DHT22;8501;49.926;8.404;2024-03-08T06:53:23;3.90;99.90
16767;DHT22;8501;49.926;8.404;2024-03-08T06:55:50;3.90;99.90
16767;DHT22;8501;49.926;8.404;2024-03-08T06:58:16;3.80;99.90
16767;DHT22;8501;49.926;8.404;2024-03-08T07:00:41;3.80;99.90
16767;DHT22;8501;49.926;8.404;2024-03-08T07:03:08;3.80;99.90
16767;DHT22;8501;49.926;8.404;2024-03-08T07:05:37;3.90;99.90
16767;DHT22;8501;49.926;8.404;2024-03-08T07:08:03;3.90;99.90
16767;DHT22;8501;49.926;8.404;2024-03-08T07:10:29;3.90;99.90
16767;DHT22;8501;49.926;8.404;2024-03-08T07:12:54;4.00;99.90
16767;DHT22;8501;49.926;8.404;2024-03-08T07:15:21;4.00;99.90
16767;DHT22;8501;49.926;8.404;2024-03-08T07:17:48;4.00;99.90
16767;DHT22;8501;49.926;8.404;2024-03-08T07:20:14;4.00;99.90
16767;DHT22;8501;49.926;8.404;2024-03-08T07:22:44;4.10;99.90
16767;DHT22;8501;49.926;8.404;2024-03-08T07:25:13;4.20;99.90
16767;DHT22;8501;49.926;8.404;2024-03-08T07:27:48;4.20;99.90
16767;DHT22;8501;49.926;8.404;2024-03-08T07:30:14;4.20;99.90
16767;DHT22;8501;49.926;8.404;2024-03-08T07:32:59;4.30;99.90
16767;DHT22;8501;49.926;8.404;2024-03-08T07:35:28;4.40;99.90
16767;DHT22;8501;49.926;8.404;2024-03-08T07:37:54;4.30;99.90
16767;DHT22;8501;49.926;8.404;2024-03-08T07:40:23;4.30;99.90
16767;DHT22;8501;49.926;8.404;2024-03-08T07:42:49;4.50;99.90
16767;DHT22;8501;49.926;8.404;2024-03-08T07:45:15;4.40;99.90
16767;DHT22;8501;49.926;8.404;2024-03-08T07:47:41;4.50;99.90
16767;DHT22;8501;49.926;8.404;2024-03-08T07:50:07;4.60;99.90
16767;DHT22;8501;49.926;8.404;2024-03-08T07:52:36;4.70;99.90
16767;DHT22;8501;49.926;8.404;2024-03-08T07:55:05;4.80;99.90
16767;DHT22;8501;49.926;8.404;2024-03-08T07:57:31;4.80;99.90
16767;DHT22;8501;49.926;8.404;2024-03-08T07:59:57;4.80;99.90
16767;DHT22;8501;49.926;8.404;2024-03-08T08:02:23;4.90;99.90
16767;DHT22;8501;49.926;8.404;2024-03-08T08:04:48;4.90;99.90
16767;DHT22;8501;49.926;8.404;2024-03-08T08:07:14;5.00;99.90
16767;DHT22;8501;49.926;8.404;2024-03-08T08:09:40;5.00;99.90
16767;DHT22;8501;49.926;8.404;2024-03-08T08:12:08;5.10;99.90
16767;DHT22;8501;49.926;8.404;2024-03-08T08:14:36;5.20;99.90
16767;DHT22;8501;49.926;8.404;2024-03-08T08:17:02;5.30;99.90
16767;DHT22;8501;49.926;8.404;2024-03-08T08:19:29;5.30;99.90
16767;DHT22;8501;49.926;8.404;2024-03-08T08:21:55;5.40;99.90
16767;DHT22;8501;49.926;8.404;2024-03-08T08:24:21;5.50;99.90
16767;DHT22;8501;49.926;8.404;2024-03-08T08:26:47;5.50;99.90
16767;DHT22;8501;49.926;8.404;2024-03-08T08:29:12;5.60;99.90
16767;DHT22;8501;49.926;8.404;2024-03-08T08:31:38;5.60;99.90
16767;DHT22;8501;49.926;8.404;2024-03-08T08:34:04;5.70;99.90
16767;DHT22;8501;49.926;8.404;2024-03-08T08:36:30;5.70;99.90
16767;DHT22;8501;49.926;8.404;2024-03-08T08:38:56;5.80;99.90
16767;DHT22;8501;49.926;8.404;2024-03-08T08:41:23;5.80;99.90
16767;DHT22;8501;49.926;8.404;2024-03-08T08:43:49;5.90;99.90
16767;DHT22;8501;49.926;8.404;2024-03-08T08:46:18;6.00;99.90
16767;DHT22;8501;49.926;8.404;2024-03-08T08:48:44;6.10;99.90
16767;DHT22;8501;49.926;8.404;2024-03-08T08:51:11;6.10;99.90
16767;DHT22;8501;49.926;8.404;2024-03-08T08:53:39;6.10;99.90
16767;DHT22;8501;49.926;8.404;2024-03-08T08:56:12;6.20;99.90
16767;DHT22;8501;49.926;8.404;2024-03-08T08:58:44;6.20;99.90
16767;DHT22;8501;49.926;8.404;2024-03-08T09:01:10;6.30;99.90
16767;DHT22;8501;49.926;8.404;2024-03-08T09:03:36;6.40;99.90
16767;DHT22;8501;49.926;8.404;2024-03-08T09:06:06;6.50;99.90
16767;DHT22;8501;49.926;8.404;2024-03-08T09:08:35;6.50;99.90
16767;DHT22;8501;49.926;8.404;2024-03-08T09:11:01;6.60;99.90
16767;DHT22;8501;49.926;8.404;2024-03-08T09:13:26;6.60;99.90
16767;DHT22;8501;49.926;8.404;2024-03-08T09:15:52;6.70;99.90
16767;DHT22;8501;49.926;8.404;2024-03-08T09:18:19;6.80;99.90
16767;DHT22;8501;49.926;8.404;2024-03-08T09:20:45;6.80;99.90
16767;DHT22;8501;49.926;8.404;2024-03-08T09:23:10;6.80;99.90
16767;DHT22;8501;49.926;8.404;2024-03-08T09:25:36;6.90;99.90
16767;DHT22;8501;49.926;8.404;2024-03-08T09:28:03;7.00;99.90
16767;DHT22;8501;49.926;8.404;2024-03-08T09:30:28;7.10;99.90
16767;DHT22;8501;49.926;8.404;2024-03-08T09:32:54;7.20;99.90
16767;DHT22;8501;49.926;8.404;2024-03-08T09:35:20;7.20;99.90
16767;DHT22;8501;49.926;8.404;2024-03-08T09:37:45;7.30;99.90
16767;DHT22;8501;49.926;8.404;2024-03-08T09:40:13;7.30;99.90
16767;DHT22;8501;49.926;8.404;2024-03-08T09:42:41;7.30;99.90
16767;DHT22;8501;49.926;8.404;2024-03-08T09:45:11;7.40;99.90
16767;DHT22;8501;49.926;8.404;2024-03-08T09:47:39;7.40;99.90
16767;DHT22;8501;49.926;8.404;2024-03-08T09:50:07;7.40;99.90
16767;DHT22;8501;49.926;8.404;2024-03-08T09:52:46;7.50;99.90
16767;DHT22;8501;49.926;8.404;2024-03-08T09:55:12;7.60;99.90
16767;DHT22;8501;49.926;8.404;2024-03-08T09:57:38;7.60;99.90
16767;DHT22;8501;49.926;8.404;2024-03-08T10:00:06;7.60;99.90
16767;DHT22;8501;49.926;8.404;2024-03-08T10:02:47;7.70;99.90
16767;DHT22;8501;49.926;8.404;2024-03-08T10:05:13;7.80;99.90
16767;DHT22;8501;49.926;8.404;2024-03-08T10:07:39;7.90;99.90
16767;DHT22;8501;49.926;8.404;2024-03-08T10:10:07;7.90;99.90
16767;DHT22;8501;49.926;8.404;2024-03-08T10:12:34;8.00;99.90
16767;DHT22;8501;49.926;8.404;2024-03-08T10:15:00;8.00;99.90
16767;DHT22;8501;49.926;8.404;2024-03-08T10:17:26;8.10;99.90
16767;DHT22;8501;49.926;8.404;2024-03-08T10:19:52;8.10;99.90
16767;DHT22;8501;49.926;8.404;2024-03-08T10:22:18;8.20;99.90
16767;DHT22;8501;49.926;8.404;2024-03-08T10:24:46;8.20;99.90
16767;DHT22;8501;49.926;8.404;2024-03-08T10:27:11;8.20;99.90
16767;DHT22;8501;49.926;8.404;2024-03-08T10:29:37;8.30;99.90
16767;DHT22;8501;49.926;8.404;2024-03-08T10:32:04;8.30;99.90
16767;DHT22;8501;49.926;8.404;2024-03-08T10:34:32;8.40;99.90
16767;DHT22;8501;49.926;8.404;2024-03-08T10:37:05;8.40;99.90
16767;DHT22;8501;49.926;8.404;2024-03-08T10:39:35;8.50;99.90
16767;DHT22;8501;49.926;8.404;2024-03-08T10:42:03;8.50;99.90
16767;DHT22;8501;49.926;8.404;2024-03-08T10:44:42;8.60;99.90
16767;DHT22;8501;49.926;8.404;2024-03-08T10:47:17;8.70;99.90
16767;DHT22;8501;49.926;8.404;2024-03-08T10:49:54;8.70;99.90
16767;DHT22;8501;49.926;8.404;2024-03-08T10:52:21;8.80;99.90
16767;DHT22;8501;49.926;8.404;2024-03-08T10:54:48;8.90;99.90
16767;DHT22;8501;49.926;8.404;2024-03-08T10:57:18;9.00;99.90
16767;DHT22;8501;49.926;8.404;2024-03-08T10:59:46;9.00;99.90
16767;DHT22;8501;49.926;8.404;2024-03-08T11:02:16;9.10;99.90
16767;DHT22;8501;49.926;8.404;2024-03-08T11:04:46;9.00;99.90
16767;DHT22;8501;49.926;8.404;2024-03-08T11:07:12;9.10;99.90
16767;DHT22;8501;49.926;8.404;2024-03-08T11:09:42;9.20;99.90
16767;DHT22;8501;49.926;8.404;2024-03-08T11:12:22;9.30;99.90
16767;DHT22;8501;49.926;8.404;2024-03-08T11:14:51;9.30;99.90
16767;DHT22;8501;49.926;8.404;2024-03-08T11:17:25;9.40;99.90
16767;DHT22;8501;49.926;8.404;2024-03-08T11:19:51;9.50;99.90
16767;DHT22;8501;49.926;8.404;2024-03-08T11:22:27;9.40;99.90
16767;DHT22;8501;49.926;8.404;2024-03-08T11:25:01;9.50;99.90
16767;DHT22;8501;49.926;8.404;2024-03-08T11:27:30;9.50;99.90
16767;DHT22;8501;49.926;8.404;2024-03-08T11:30:01;9.60;99.90
16767;DHT22;8501;49.926;8.404;2024-03-08T11:32:35;9.70;99.90
16767;DHT22;8501;49.926;8.404;2024-03-08T11:35:03;9.70;99.90
16767;DHT22;8501;49.926;8.404;2024-03-08T11:37:33;9.80;99.90
16767;DHT22;8501;49.926;8.404;2024-03-08T11:40:01;9.80;99.90
16767;DHT22;8501;49.926;8.404;2024-03-08T11:42:29;9.80;99.90
16767;DHT22;8501;49.926;8.404;2024-03-08T11:44:56;9.90;99.90
16767;DHT22;8501;49.926;8.404;2024-03-08T11:47:22;9.90;99.90
16767;DHT22;8501;49.926;8.404;2024-03-08T11:49:48;9.90;99.90
16767;DHT22;8501;49.926;8.404;2024-03-08T11:52:15;10.00;99.90
16767;DHT22;8501;49.926;8.404;2024-03-08T11:54:42;10.00;99.90
16767;DHT22;8501;49.926;8.404;2024-03-08T11:57:09;10.10;99.90
16767;DHT22;8501;49.926;8.404;2024-03-08T11:59:35;10.10;99.90
16767;DHT22;8501;49.926;8.404;2024-03-08T12:02:03;10.10;99.90
16767;DHT22;8501;49.926;8.404;2024-03-08T12:04:29;10.20;99.90
16767;DHT22;8501;49.926;8.404;2024-03-08T12:06:57;10.20;99.90
16767;DHT22;8501;49.926;8.404;2024-03-08T12:09:26;10.30;99.90
16767;DHT22;8501;49.926;8.404;2024-03-08T12:11:51;10.40;99.90
16767;DHT22;8501;49.926;8.404;2024-03-08T12:14:17;10.40;99.90
16767;DHT22;8501;49.926;8.404;2024-03-08T12:16:43;10.50;99.90
16767;DHT22;8501;49.926;8.404;2024-03-08T12:19:09;10.50;99.90
16767;DHT22;8501;49.926;8.404;2024-03-08T12:21:35;10.50;99.90
16767;DHT22;8501;49.926;8.404;2024-03-08T12:24:10;10.50;99.90
16767;DHT22;8501;49.926;8.404;2024-03-08T12:26:38;10.60;99.90
16767;DHT22;8501;49.926;8.404;2024-03-08T12:29:24;10.70;99.90
16767;DHT22;8501;49.926;8.404;2024-03-08T12:32:00;10.70;99.90
16767;DHT22;8501;49.926;8.404;2024-03-08T12:34:30;10.70;99.90
16767;DHT22;8501;49.926;8.404;2024-03-08T12:36:57;10.60;99.90
16767;DHT22;8501;49.926;8.404;2024-03-08T12:39:24;10.70;99.90
16767;DHT22;8501;49.926;8.404;2024-03-08T12:41:53;10.70;99.90
16767;DHT22;8501;49.926;8.404;2024-03-08T12:44:19;10.80;99.90
16767;DHT22;8501;49.926;8.404;2024-03-08T12:46:47;10.90;99.90
16767;DHT22;8501;49.926;8.404;2024-03-08T12:49:13;10.80;99.90
16767;DHT22;8501;49.926;8.404;2024-03-08T12:51:44;10.90;99.90
16767;DHT22;8501;49.926;8.404;2024-03-08T12:54:09;10.90;99.90
16767;DHT22;8501;49.926;8.404;2024-03-08T12:56:35;11.00;99.90
16767;DHT22;8501;49.926;8.404;2024-03-08T12:59:09;11.00;99.90
16767;DHT22;8501;49.926;8.404;2024-03-08T13:01:35;11.00;99.90
16767;DHT22;8501;49.926;8.404;2024-03-08T13:04:04;11.00;99.90
16767;DHT22;8501;49.926;8.404;2024-03-08T13:06:31;11.10;99.90
16767;DHT22;8501;49.926;8.404;2024-03-08T13:08:58;11.20;99.90
16767;DHT22;8501;49.926;8.404;2024-03-08T13:11:24;11.10;99.90
16767;DHT22;8501;49.926;8.404;2024-03-08T13:13:51;11.10;99.90
16767;DHT22;8501;49.926;8.404;2024-03-08T13:16:16;11.20;99.90
16767;DHT22;8501;49.926;8.404;2024-03-08T13:18:44;11.20;99.90
16767;DHT22;8501;49.926;8.404;2024-03-08T13:21:10;11.10;99.90
16767;DHT22;8501;49.926;8.404;2024-03-08T13:23:39;11.20;99.90
16767;DHT22;8501;49.926;8.404;2024-03-08T13:26:12;11.30;99.90
16767;DHT22;8501;49.926;8.404;2024-03-08T13:28:42;11.40;99.90
16767;DHT22;8501;49.926;8.404;2024-03-08T13:31:07;11.40;99.90
16767;DHT22;8501;49.926;8.404;2024-03-08T13:33:35;11.50;99.90
16767;DHT22;8501;49.926;8.404;2024-03-08T13:36:02;11.50;99.90
16767;DHT22;8501;49.926;8.404;2024-03-08T13:38:32;11.50;99.90
16767;DHT22;8501;49.926;8.404;2024-03-08T13:40:58;11.50;99.90
16767;DHT22;8501;49.926;8.404;2024-03-08T13:43:24;11.60;99.90
16767;DHT22;8501;49.926;8.404;2024-03-08T13:45:49;11.60;99.90
16767;DHT22;8501;49.926;8.404;2024-03-08T13:48:15;11.70;99.90
16767;DHT22;8501;49.926;8.404;2024-03-08T13:50:41;11.70;99.90
16767;DHT22;8501;49.926;8.404;2024-03-08T13:53:07;11.60;99.90
16767;DHT22;8501;49.926;8.404;2024-03-08T13:55:35;11.70;99.90
16767;DHT22;8501;49.926;8.404;2024-03-08T13:58:00;11.70;99.90
16767;DHT22;8501;49.926;8.404;2024-03-08T14:00:27;11.80;99.90
16767;DHT22;8501;49.926;8.404;2024-03-08T14:02:58;11.90;99.90
16767;DHT22;8501;49.926;8.404;2024-03-08T14:05:24;12.00;99.90
16767;DHT22;8501;49.926;8.404;2024-03-08T14:07:50;12.10;99.90
16767;DHT22;8501;49.926;8.404;2024-03-08T14:10:16;12.10;99.90
16767;DHT22;8501;49.926;8.404;2024-03-08T14:12:42;12.10;99.90
16767;DHT22;8501;49.926;8.404;2024-03-08T14:15:09;12.20;99.90
16767;DHT22;8501;49.926;8.404;2024-03-08T14:17:36;12.30;99.90
16767;DHT22;8501;49.926;8.404;2024-03-08T14:20:03;12.40;99.90
16767;DHT22;8501;49.926;8.404;2024-03-08T14:22:29;12.60;99.90
16767;DHT22;8501;49.926;8.404;2024-03-08T14:24:56;12.90;99.90
16767;DHT22;8501;49.926;8.404;2024-03-08T14:27:22;13.20;99.90
16767;DHT22;8501;49.926;8.404;2024-03-08T14:29:48;13.40;99.90
16767;DHT22;8501;49.926;8.404;2024-03-08T14:32:13;13.80;99.90
16767;DHT22;8501;49.926;8.404;2024-03-08T14:34:40;14.20;99.90
16767;DHT22;8501;49.926;8.404;2024-03-08T14:37:05;14.70;99.90
16767;DHT22;8501;49.926;8.404;2024-03-08T14:39:36;14.80;99.90
16767;DHT22;8501;49.926;8.404;2024-03-08T14:42:02;15.10;99.90
16767;DHT22;8501;49.926;8.404;2024-03-08T14:44:29;15.20;99.90
16767;DHT22;8501;49.926;8.404;2024-03-08T14:46:58;15.50;99.90
16767;DHT22;8501;49.926;8.404;2024-03-08T14:49:24;15.60;99.90
16767;DHT22;8501;49.926;8.404;2024-03-08T14:51:55;15.70;99.90
16767;DHT22;8501;49.926;8.404;2024-03-08T14:54:20;15.80;99.90
16767;DHT22;8501;49.926;8.404;2024-03-08T14:56:48;16.00;99.90
16767;DHT22;8501;49.926;8.404;2024-03-08T14:59:16;16.10;99.90
16767;DHT22;8501;49.926;8.404;2024-03-08T15:01:41;16.30;99.90
16767;DHT22;8501;49.926;8.404;2024-03-08T15:04:09;16.10;99.90
16767;DHT22;8501;49.926;8.404;2024-03-08T15:06:36;15.90;99.90
16767;DHT22;8501;49.926;8.404;2024-03-08T15:09:05;15.90;99.90
16767;DHT22;8501;49.926;8.404;2024-03-08T15:11:45;16.00;99.90
16767;DHT22;8501;49.926;8.404;2024-03-08T15:14:11;16.00;99.90
16767;DHT22;8501;49.926;8.404;2024-03-08T15:16:40;16.00;99.90
16767;DHT22;8501;49.926;8.404;2024-03-08T15:19:08;15.90;99.90
16767;DHT22;8501;49.926;8.404;2024-03-08T15:21:33;15.90;99.90
16767;DHT22;8501;49.926;8.404;2024-03-08T15:24:02;15.80;99.90
16767;DHT22;8501;49.926;8.404;2024-03-08T15:26:31;15.00;99.90
16767;DHT22;8501;49.926;8.404;2024-03-08T15:28:57;14.40;99.90
16767;DHT22;8501;49.926;8.404;2024-03-08T15:31:23;13.80;99.90
16767;DHT22;8501;49.926;8.404;2024-03-08T15:33:50;13.50;99.90
16767;DHT22;8501;49.926;8.404;2024-03-08T15:36:27;13.30;99.90
16767;DHT22;8501;49.926;8.404;2024-03-08T15:38:59;13.10;99.90
16767;DHT22;8501;49.926;8.404;2024-03-08T15:41:24;12.90;99.90
16767;DHT22;8501;49.926;8.404;2024-03-08T15:43:52;12.80;99.90
16767;DHT22;8501;49.926;8.404;2024-03-08T15:46:18;12.70;99.90
16767;DHT22;8501;49.926;8.404;2024-03-08T15:48:48;12.60;99.90
16767;DHT22;8501;49.926;8.404;2024-03-08T15:51:15;12.60;99.90
16767;DHT22;8501;49.926;8.404;2024-03-08T15:53:43;12.50;99.90
16767;DHT22;8501;49.926;8.404;2024-03-08T15:56:21;12.50;99.90
16767;DHT22;8501;49.926;8.404;2024-03-08T15:58:48;12.40;99.90